createdAt,value
2023-04-19T08:09:34.288Z,1.50
2023-04-19T08:12:01.721Z,1.33
2023-04-19T08:14:40.017Z,1.45
2023-04-19T08:17:24.624Z,1.50
2023-04-19T08:19:53.914Z,1.30
2023-04-19T08:22:21.809Z,1.40
2023-04-19T08:24:52.287Z,1.98
2023-04-19T08:27:19.930Z,1.70
2023-04-19T08:29:47.009Z,1.60
2023-04-19T08:32:13.932Z,1.50
2023-04-19T08:34:41.116Z,1.60
2023-04-19T08:37:07.918Z,1.67
2023-04-19T08:39:35.438Z,1.60
2023-04-19T08:42:11.049Z,1.30
2023-04-19T08:45:13.092Z,1.70
2023-04-19T08:47:51.818Z,1.85
2023-04-19T08:50:32.453Z,1.58
2023-04-19T08:55:33.942Z,2.05
2023-04-19T08:58:01.684Z,1.73
2023-04-19T09:00:29.358Z,1.90
2023-04-19T09:02:56.394Z,2.28
2023-04-19T09:05:23.669Z,1.70
2023-04-19T09:07:50.772Z,1.83
2023-04-19T09:10:19.511Z,1.83
2023-04-19T09:13:03.485Z,2.00
2023-04-19T09:15:38.646Z,2.08
2023-04-19T09:18:08.085Z,1.67
2023-04-19T09:20:44.266Z,1.58
2023-04-19T09:23:16.370Z,1.90
2023-04-19T09:26:22.035Z,1.90
2023-04-19T09:28:57.189Z,1.75
2023-04-19T09:31:43.538Z,1.75
2023-04-19T09:34:13.477Z,2.40
2023-04-19T09:36:40.987Z,1.75
2023-04-19T09:39:08.185Z,1.90
2023-04-19T09:41:38.177Z,2.30
2023-04-19T09:46:46.617Z,2.08
2023-04-19T09:49:25.055Z,1.70
2023-04-19T09:52:04.323Z,2.25
2023-04-19T09:54:32.865Z,2.28
2023-04-19T09:57:01.773Z,1.80
2023-04-19T09:59:28.737Z,1.80
2023-04-19T10:01:59.076Z,2.35
2023-04-19T10:04:43.524Z,1.60
2023-04-19T10:09:52.864Z,2.45
2023-04-19T10:12:46.333Z,2.17
2023-04-19T10:15:12.126Z,1.90
2023-04-19T10:17:39.118Z,1.90
2023-04-19T10:20:09.086Z,2.15
2023-04-19T10:22:38.013Z,1.90
2023-04-19T10:25:09.992Z,2.00
2023-04-19T10:27:37.472Z,1.90
2023-04-19T10:30:08.304Z,2.10
2023-04-19T10:32:42.609Z,2.22
2023-04-19T10:35:29.852Z,1.83
2023-04-19T10:38:07.294Z,2.38
2023-04-19T10:40:53.241Z,2.10
2023-04-19T10:43:20.227Z,2.20
2023-04-19T10:45:47.811Z,1.85
2023-04-19T10:48:27.628Z,2.10
2023-04-19T10:51:07.597Z,1.90
2023-04-19T10:53:57.168Z,2.15
2023-04-19T10:56:33.099Z,2.13
2023-04-19T10:59:08.588Z,2.05
2023-04-19T11:01:45.471Z,2.38
2023-04-19T11:04:13.153Z,2.85
2023-04-19T11:06:55.527Z,1.88
2023-04-19T11:09:30.457Z,1.98
2023-04-19T11:12:04.809Z,2.15
2023-04-19T11:14:37.474Z,1.73
2023-04-19T11:17:27.226Z,2.03
2023-04-19T11:19:58.921Z,2.25
2023-04-19T11:22:39.150Z,2.13
2023-04-19T11:25:10.197Z,2.20
2023-04-19T11:27:37.683Z,1.90
2023-04-19T11:30:12.326Z,2.15
2023-04-19T11:32:48.621Z,1.90
2023-04-19T11:35:19.610Z,2.33
2023-04-19T11:37:46.508Z,1.85
2023-04-19T11:40:17.987Z,2.30
2023-04-19T11:42:45.594Z,2.10
2023-04-19T11:45:25.752Z,2.40
2023-04-19T11:47:56.018Z,1.83
2023-04-19T11:50:38.951Z,2.05
2023-04-19T11:53:15.028Z,1.85
2023-04-19T11:55:55.001Z,1.60
2023-04-19T11:58:44.064Z,2.65
2023-04-19T12:01:11.700Z,2.13
2023-04-19T12:03:45.628Z,2.20
2023-04-19T12:06:14.657Z,2.30
2023-04-19T12:08:47.500Z,2.47
2023-04-19T12:11:15.578Z,2.80
2023-04-19T12:13:44.586Z,2.25
2023-04-19T12:16:12.860Z,2.58
2023-04-19T12:18:49.281Z,2.20
2023-04-19T12:21:29.676Z,2.25
2023-04-19T12:24:01.758Z,2.10
2023-04-19T12:26:29.829Z,2.72
2023-04-19T12:28:57.916Z,1.83
2023-04-19T12:31:25.017Z,1.95
2023-04-19T12:33:52.143Z,2.10
2023-04-19T12:36:19.073Z,1.90
2023-04-19T12:38:45.999Z,2.00
2023-04-19T12:41:12.787Z,2.17
2023-04-19T12:43:39.673Z,2.20
2023-04-19T12:46:06.615Z,1.98
2023-04-19T12:48:33.457Z,2.42
2023-04-19T12:51:00.688Z,2.30
2023-04-19T12:53:27.474Z,2.40
2023-04-19T12:55:54.335Z,2.20
2023-04-19T12:58:21.523Z,2.22
2023-04-19T13:00:49.521Z,2.13
2023-04-19T13:03:16.608Z,2.50
2023-04-19T13:05:43.544Z,2.33
2023-04-19T13:08:10.293Z,2.47
2023-04-19T13:10:37.278Z,2.40
2023-04-19T13:13:04.039Z,3.20
2023-04-19T13:15:30.975Z,2.90
2023-04-19T13:17:57.795Z,2.63
2023-04-19T13:20:24.576Z,2.80
2023-04-19T13:22:51.790Z,2.53
2023-04-19T13:25:18.682Z,2.90
2023-04-19T13:27:47.254Z,2.47
2023-04-19T13:30:14.575Z,2.45
2023-04-19T13:32:41.497Z,2.50
2023-04-19T13:35:09.303Z,2.30
2023-04-19T13:37:36.184Z,3.33
2023-04-19T13:40:17.975Z,2.60
2023-04-19T13:42:46.415Z,2.58
2023-04-19T13:45:13.756Z,2.70
2023-04-19T13:47:40.540Z,2.70
2023-04-19T13:50:08.126Z,2.35
2023-04-19T13:52:35.109Z,2.55
2023-04-19T13:55:02.197Z,2.78
2023-04-19T13:57:29.088Z,2.40
2023-04-19T13:59:55.892Z,2.28
2023-04-19T14:02:22.884Z,2.83
2023-04-19T14:04:49.931Z,2.50
2023-04-19T14:07:17.105Z,2.80
2023-04-19T14:09:44.713Z,2.60
2023-04-19T14:12:11.827Z,2.58
2023-04-19T14:14:38.660Z,2.50
2023-04-19T14:17:05.702Z,2.85
2023-04-19T14:19:32.628Z,2.40
2023-04-19T14:21:59.421Z,2.78
2023-04-19T14:24:26.362Z,2.33
2023-04-19T14:27:09.149Z,2.65
2023-04-19T14:29:37.712Z,2.67
2023-04-19T14:32:20.941Z,2.60
2023-04-19T14:34:51.658Z,2.63
2023-04-19T14:37:18.916Z,2.67
2023-04-19T14:39:46.508Z,2.20
2023-04-19T14:42:13.632Z,2.15
2023-04-19T14:44:41.269Z,3.28
2023-04-19T14:47:10.008Z,2.55
2023-04-19T14:49:36.825Z,2.30
2023-04-19T14:52:04.413Z,2.92
2023-04-19T14:54:31.267Z,2.65
2023-04-19T14:56:58.110Z,2.90
2023-04-19T14:59:24.971Z,2.75
2023-04-19T15:01:52.009Z,3.10
2023-04-19T15:04:20.009Z,3.40
2023-04-19T15:06:46.909Z,2.67
2023-04-19T15:09:14.235Z,3.20
2023-04-19T15:11:41.515Z,3.55
2023-04-19T15:14:08.249Z,3.92
2023-04-19T15:16:36.669Z,4.30
2023-04-19T15:19:05.013Z,4.28
2023-04-19T15:21:31.940Z,4.28
